createdAt,value
2019-02-12T14:17:47.897Z,61.83
2019-02-12T14:18:47.841Z,62.45
2019-02-12T14:26:42.602Z,61.21
2019-02-12T14:27:42.584Z,59.98
2019-02-12T14:28:42.551Z,61.21
2019-02-12T14:29:42.541Z,61.93
2019-02-12T14:30:42.528Z,61.21
2019-02-12T14:31:42.520Z,62.14
2019-02-12T14:32:42.529Z,62.14
2019-02-12T14:33:42.499Z,61.83
2019-02-12T14:34:42.487Z,62.52
2019-02-12T14:35:42.474Z,62.24
2019-02-12T14:36:42.463Z,61.29
2019-02-12T14:37:42.476Z,61.52
2019-02-12T14:38:42.492Z,61.42
2019-02-12T14:39:42.433Z,60.80
2019-02-12T14:40:42.419Z,61.21
2019-02-12T14:41:42.407Z,61.18
2019-02-12T14:42:42.422Z,61.21
2019-02-12T14:43:42.405Z,61.32
2019-02-12T14:47:10.828Z,61.83
2019-02-12T14:48:10.794Z,61.72
2019-02-12T14:49:10.787Z,62.14
2019-02-12T14:50:10.775Z,62.14
2019-02-12T14:51:10.759Z,61.21
2019-02-12T14:52:10.768Z,61.24
2019-02-12T14:53:10.742Z,60.52
2019-02-12T14:54:10.723Z,60.63
2019-02-12T14:55:10.745Z,60.73
2019-02-12T14:56:11.536Z,61.35
2019-02-12T14:57:10.731Z,61.24
2019-02-12T14:58:10.684Z,62.68
2019-02-12T14:59:10.671Z,62.68
2019-02-12T15:00:10.657Z,62.78
2019-02-12T15:01:10.650Z,62.88
2019-02-12T15:02:10.637Z,62.06
2019-02-12T15:03:10.643Z,61.55
2019-02-12T15:04:10.621Z,60.93
2019-02-12T15:05:10.633Z,62.09
2019-02-12T15:06:10.598Z,61.24
2019-02-12T15:07:10.583Z,61.58
2019-02-12T15:08:10.594Z,59.52
2019-02-12T15:09:10.559Z,60.55
2019-02-12T15:10:10.551Z,60.55
2019-02-12T15:11:10.539Z,60.35
2019-02-12T15:12:10.526Z,59.86
2019-02-12T15:13:10.539Z,60.27
2019-02-12T15:14:10.513Z,61.71
2019-02-12T15:15:10.594Z,60.78
2019-02-12T15:16:10.483Z,61.30
2019-02-12T15:17:10.478Z,61.30
2019-02-12T15:18:10.490Z,61.91
2019-02-12T15:19:10.451Z,62.02
2019-02-12T15:20:10.443Z,61.61
2019-02-12T15:21:10.432Z,61.91
2019-02-12T15:22:10.418Z,61.91
2019-02-12T15:23:10.407Z,62.05
2019-02-12T15:24:10.464Z,62.46
2019-02-12T15:25:10.386Z,62.53
2019-02-12T15:26:10.389Z,62.23
2019-02-12T15:27:10.362Z,62.63
2019-02-12T15:29:40.797Z,62.95
2019-02-12T15:30:40.781Z,63.05
2019-02-12T15:31:40.747Z,63.15
2019-02-12T15:32:40.735Z,62.84
2019-02-12T15:33:40.726Z,63.15
2019-02-12T15:34:40.749Z,62.23
2019-02-12T15:35:40.712Z,61.71
2019-02-12T15:36:40.696Z,61.40
2019-02-12T15:37:40.681Z,61.84
2019-02-12T15:38:40.669Z,60.81
2019-02-12T15:39:40.706Z,62.05
2019-02-12T15:40:40.652Z,62.87
2019-02-12T15:41:40.638Z,62.66
2019-02-12T15:42:40.649Z,63.39
2019-02-12T15:43:40.621Z,64.00
2019-02-12T15:44:40.633Z,63.18
2019-02-12T15:45:40.619Z,62.84
2019-02-12T15:46:40.618Z,62.97
2019-02-12T15:47:40.574Z,62.63
2019-02-12T15:48:40.572Z,61.84
2019-02-12T15:49:40.599Z,62.97
2019-02-12T15:50:40.552Z,61.74
2019-02-12T15:51:40.532Z,63.28
2019-02-12T15:52:40.522Z,62.56
2019-02-12T15:53:40.508Z,62.35
2019-02-12T15:54:40.499Z,62.05
2019-02-12T15:55:42.272Z,62.97
2019-02-12T15:56:41.475Z,63.28
2019-02-12T15:57:43.112Z,62.97
2019-02-12T15:58:41.448Z,63.18
2019-02-12T15:59:40.438Z,62.66
2019-02-12T16:00:41.525Z,62.77
2019-02-12T16:01:40.427Z,63.59
2019-02-12T16:02:40.410Z,63.49
2019-02-12T16:03:40.396Z,63.18
2019-02-12T16:04:40.385Z,63.18
2019-02-12T16:05:41.341Z,62.56
2019-02-12T16:06:42.394Z,62.56
2019-02-12T16:07:40.351Z,62.77
2019-02-12T16:08:40.343Z,63.62
2019-02-12T16:09:41.664Z,63.62
2019-02-12T16:10:41.943Z,63.72
2019-02-12T16:11:41.946Z,63.42
2019-02-12T16:12:40.304Z,64.44
2019-02-12T16:13:40.290Z,63.52
2019-02-12T16:14:42.103Z,63.72
2019-02-12T16:15:40.266Z,63.42
2019-02-12T16:16:40.303Z,63.72
2019-02-12T16:17:40.241Z,63.72
2019-02-12T16:18:40.231Z,63.82
2019-02-12T16:19:40.220Z,63.62
2019-02-12T16:20:40.216Z,63.72
2019-02-12T16:21:40.211Z,64.06
2019-02-12T16:22:40.216Z,64.68
2019-02-12T16:23:40.178Z,64.96
2019-02-12T16:24:40.363Z,63.45
2019-02-12T16:25:40.167Z,64.27
2019-02-12T16:26:40.144Z,64.99
2019-02-12T16:27:40.151Z,65.71
2019-02-12T16:28:40.118Z,65.71
2019-02-12T16:29:40.585Z,65.19
2019-02-12T16:30:40.096Z,66.22
2019-02-12T16:31:40.088Z,63.85
2019-02-12T16:32:40.113Z,64.92
2019-02-12T16:33:40.072Z,63.99
2019-02-12T16:35:15.815Z,64.92
2019-02-12T16:35:40.096Z,64.92
2019-02-12T16:36:40.032Z,64.81
2019-02-12T16:37:40.039Z,65.02
2019-02-12T16:38:40.009Z,65.43
2019-02-12T16:39:40.984Z,65.64
2019-02-12T16:40:39.986Z,65.95
2019-02-12T16:41:39.993Z,65.84
2019-02-12T16:42:40.011Z,65.56
2019-02-12T16:43:40.018Z,65.64
2019-02-12T16:44:39.942Z,65.77
2019-02-12T16:45:39.940Z,66.28
2019-02-12T16:46:39.924Z,66.08
2019-02-12T16:47:40.071Z,67.00
2019-02-12T16:48:39.978Z,66.49
2019-02-12T16:49:39.923Z,66.80
2019-02-12T16:50:39.873Z,67.42
2019-02-12T16:51:39.887Z,67.03
2019-02-12T16:52:39.925Z,68.59
2019-02-12T16:53:39.976Z,67.45
2019-02-12T16:54:39.844Z,67.35
2019-02-12T16:55:39.880Z,68.69
2019-02-12T16:56:39.889Z,66.94
2019-02-12T16:57:39.910Z,67.45
2019-02-12T16:58:39.806Z,68.59
2019-02-12T16:59:39.906Z,67.86
2019-02-12T17:00:39.765Z,67.97
2019-02-12T17:01:39.752Z,67.76
2019-02-12T17:02:39.763Z,67.76
2019-02-12T17:03:39.730Z,67.90
2019-02-12T17:04:39.720Z,68.38
2019-02-12T17:05:39.717Z,68.17
2019-02-12T17:06:39.695Z,68.41
2019-02-12T17:07:39.734Z,68.41
2019-02-12T17:08:39.678Z,69.10
2019-02-12T17:09:39.663Z,68.17
2019-02-12T17:10:39.656Z,69.44
2019-02-12T17:11:39.655Z,69.54
2019-02-12T17:12:39.628Z,69.96
2019-02-12T17:13:39.641Z,69.75
2019-02-12T17:14:39.609Z,69.96
2019-02-12T17:15:39.594Z,69.75
2019-02-12T17:16:39.590Z,69.13
2019-02-12T17:17:39.628Z,69.75
2019-02-12T17:18:39.641Z,69.99
2019-02-12T17:19:39.551Z,69.75
2019-02-12T17:20:39.544Z,69.17
2019-02-12T17:21:39.540Z,70.20
2019-02-12T17:22:39.521Z,69.99
2019-02-12T17:23:39.533Z,70.72
2019-02-12T17:24:39.502Z,70.82
2019-02-12T17:25:39.486Z,71.54
2019-02-12T17:26:39.475Z,71.33
2019-02-12T17:27:39.470Z,70.92
2019-02-12T17:28:39.484Z,70.72
2019-02-12T17:29:39.475Z,71.57
2019-02-12T17:30:39.526Z,70.92
2019-02-12T17:31:39.766Z,70.64
2019-02-12T17:32:39.408Z,70.92
2019-02-12T17:33:39.430Z,71.47
2019-02-12T17:34:39.453Z,71.57
2019-02-12T17:35:39.386Z,71.26
2019-02-12T17:36:39.506Z,72.26
2019-02-12T17:37:39.567Z,71.67
2019-02-12T17:38:39.432Z,72.09
2019-02-12T17:39:39.415Z,72.09
2019-02-12T17:40:39.388Z,71.47
2019-02-12T17:41:39.326Z,71.67
2019-02-12T17:42:39.421Z,71.54
2019-02-12T17:43:39.416Z,71.54
2019-02-12T17:44:39.289Z,72.06
2019-02-12T17:45:39.298Z,72.19
2019-02-12T17:46:39.286Z,71.98
2019-02-12T17:47:39.242Z,71.98
2019-02-12T17:48:39.321Z,71.95
2019-02-12T17:49:39.219Z,72.19
2019-02-12T17:50:39.210Z,72.09
2019-02-12T17:51:39.196Z,71.88
2019-02-12T17:52:39.197Z,72.26
2019-02-12T17:53:39.295Z,72.19
2019-02-12T17:54:39.207Z,71.98
2019-02-12T17:55:39.179Z,72.09
2019-02-12T17:56:39.194Z,71.88
2019-02-12T17:57:39.171Z,72.50
2019-02-12T17:58:39.241Z,71.57
2019-02-12T17:59:39.111Z,71.78
2019-02-12T18:00:39.228Z,72.09
2019-02-12T18:01:39.359Z,72.30
2019-02-12T18:02:39.233Z,72.40
2019-02-12T18:03:39.092Z,71.88
2019-02-12T18:04:39.057Z,72.40
2019-02-12T18:05:39.044Z,72.50
2019-02-12T18:06:39.054Z,72.40
2019-02-12T18:07:39.117Z,72.50
2019-02-12T18:08:39.009Z,72.30
2019-02-12T18:09:39.023Z,73.02
2019-02-12T18:10:38.995Z,73.02
2019-02-12T18:11:38.973Z,72.40
2019-02-12T18:12:38.968Z,73.02
2019-02-12T18:13:38.952Z,73.05
2019-02-12T18:14:39.000Z,72.40
2019-02-12T18:15:39.089Z,73.05
2019-02-12T18:16:38.942Z,73.16
2019-02-12T18:17:38.913Z,73.47
2019-02-12T18:18:38.903Z,73.26
2019-02-12T18:19:38.916Z,72.85
2019-02-12T18:20:38.877Z,73.16
2019-02-12T18:21:38.874Z,73.08
2019-02-12T18:22:38.859Z,72.64
2019-02-12T18:23:38.896Z,72.64
2019-02-12T18:24:39.047Z,73.08
2019-02-12T18:25:39.240Z,73.19
2019-02-12T18:26:38.862Z,73.39
2019-02-12T18:27:38.972Z,73.50
2019-02-12T18:28:39.006Z,74.22
2019-02-12T18:29:38.776Z,74.22
2019-02-12T18:30:39.013Z,74.53
2019-02-12T18:31:38.750Z,73.91
2019-02-12T18:32:38.792Z,74.22
2019-02-12T18:33:38.799Z,74.22
2019-02-12T18:34:38.823Z,74.02
2019-02-12T18:35:38.781Z,74.12
2019-02-12T18:36:38.710Z,74.02
2019-02-12T18:37:38.876Z,74.22
2019-02-12T18:38:38.698Z,74.53
2019-02-12T18:39:38.665Z,74.53
2019-02-12T18:40:38.873Z,73.91
2019-02-12T18:41:38.641Z,74.53
